Maersk Visby — 9V8827 — position and weather

sailwx.info

Track history (hours):
 
Tides and Currents Weather Stations Pressure Air Temp Water Temp Dewpoint Dewpoint Depression Visibility Wind Speed Wind Dir Waves Ship Positions

Maersk Visby

Last reported at 2016-Jun-19 18:08 UTC. Time now 2016-Jun-29 12:52 UTC.
Position N 34°09' W 076°28'.
Warning: this ship's position is 9 days out of date.

Length 180 m; draft 8.1 m.

Type: Ship (hazmat cat A). MMSI: 564979000.

Date/timePositionNaut miles runAvg speedWind from/ knotsBaromVisibWave heightAir tempDewpointWater temp
2016-Jun-19 18:08N 34°09' W 076°28'914.9
2016-Jun-19 17:33N 34°15' W 076°20'11913.3
2016-Jun-19 08:33N 35°59' W 075°10'5814.6
2016-Jun-19 04:33N 36°49' W 075°48'1414.4
2016-Jun-19 03:33N 36°57' W 076°02'1414.2
2016-Jun-19 02:33N 36°58' W 076°20'5 5.4
2016-Jun-19 01:34N 36°53' W 076°21'0 0.0
2016-Jun-19 00:33N 36°53' W 076°21'0 0.0
2016-Jun-18 23:32N 36°53' W 076°21'0 0.0
2016-Jun-18 22:31N 36°53' W 076°21'0 0.0
2016-Jun-18 21:28N 36°53' W 076°21'0 0.0
2016-Jun-18 20:31N 36°53' W 076°21'0 0.0
2016-Jun-18 19:31N 36°53' W 076°21'0 0.0
2016-Jun-18 18:31N 36°53' W 076°21'0 0.0
2016-Jun-18 17:31N 36°53' W 076°21'0 0.0
2016-Jun-18 16:31N 36°53' W 076°21'0 0.0
2016-Jun-18 15:32N 36°53' W 076°21'5 5.3
2016-Jun-18 14:32N 36°58' W 076°20'1111.5
2016-Jun-18 13:33N 36°58' W 076°06'1111.2
2016-Jun-18 12:33N 36°54' W 075°53'9 9.2
2016-Jun-18 11:33N 36°51' W 075°43'1 0.6
2016-Jun-18 10:27N 36°50' W 075°42'0 0.0
2016-Jun-18 09:33N 36°51' W 075°42'0 0.0
2016-Jun-18 08:33N 36°51' W 075°42'0 0.0
2016-Jun-18 07:33N 36°51' W 075°42'0 0.0
2016-Jun-18 06:18N 36°50' W 075°42'4 1.3
2016-Jun-18 03:11N 36°49' W 075°46'915.0
2016-Jun-18 02:33N 36°54' W 075°56'1815.1
2016-Jun-18 01:22N 37°09' W 076°09'5116.4
2016-Jun-17 22:15N 37°60' W 076°12'4918.0
2016-Jun-17 19:33N 38°48' W 076°25'1615.9
2016-Jun-17 18:34N 39°03' W 076°23'1212.3
2016-Jun-17 17:33N 39°14' W 076°32'2 1.9
2016-Jun-17 16:33N 39°15' W 076°33'0 0.0
2016-Jun-17 15:33N 39°15' W 076°33'0 0.0
2016-Jun-17 14:33N 39°15' W 076°33'0 0.0
2016-Jun-17 13:33N 39°15' W 076°33'0 0.0
2016-Jun-17 12:33N 39°15' W 076°33'0 0.0
2016-Jun-17 11:24N 39°15' W 076°33'0 0.0
2016-Jun-17 10:33N 39°15' W 076°33'0 0.0
2016-Jun-17 09:33N 39°15' W 076°33'5 4.9
2016-Jun-17 08:33N 39°12' W 076°29'1111.0
2016-Jun-17 07:33N 39°02' W 076°23'1716.9
2016-Jun-17 06:34N 38°45' W 076°26'10918.1
2016-Jun-17 00:33N 36°58' W 075°60'1313.4
2016-Jun-16 23:33N 36°50' W 075°46'10610.6
2016-Jun-16 13:33N 38°10' W 074°18'2511.7
2016-Jun-16 11:27N 38°30' W 074°01'4811.7
2016-Jun-16 07:21N 39°18' W 073°55'911.8
2016-Jun-16 06:33N 39°28' W 073°54'1211.9
2016-Jun-16 05:33N 39°39' W 073°53'1212.0
2016-Jun-16 04:33N 39°51' W 073°51'1211.8
2016-Jun-16 03:33N 40°03' W 073°50'1211.8
2016-Jun-16 02:33N 40°15' W 073°49'1211.8
2016-Jun-16 01:33N 40°27' W 073°49'1312.8
2016-Jun-16 00:34N 40°35' W 074°02'7 6.7
2016-Jun-15 23:33N 40°39' W 074°09'2 2.0
2016-Jun-15 22:33N 40°41' W 074°09'0 0.0
2016-Jun-15 21:31N 40°41' W 074°09'0 0.0
2016-Jun-15 20:31N 40°41' W 074°09'0 0.0
2016-Jun-15 19:31N 40°41' W 074°09'0 0.0
2016-Jun-15 18:28N 40°41' W 074°09'0 0.0
2016-Jun-15 17:28N 40°41' W 074°09'0 0.0
2016-Jun-15 16:31N 40°41' W 074°09'0 0.0
2016-Jun-15 15:31N 40°41' W 074°09'0 0.0
2016-Jun-15 14:31N 40°41' W 074°09'0 0.0
2016-Jun-15 13:31N 40°41' W 074°09'0 0.0
2016-Jun-15 12:28N 40°41' W 074°09'0 0.0
2016-Jun-15 11:31N 40°41' W 074°09'0 0.0
2016-Jun-15 10:31N 40°41' W 074°09'1 1.4
2016-Jun-15 09:33N 40°40' W 074°08'5 4.7
2016-Jun-15 08:33N 40°38' W 074°03'1110.6
2016-Jun-15 07:33N 40°29' W 073°54'9212.4
2016-Jun-15 00:07N 39°28' W 072°24'712.9
2016-Jun-14 23:33N 39°23' W 072°17'1413.7
2016-Jun-14 22:33N 39°12' W 072°06'  
Track history (hours):
 
Tides and Currents Weather Stations Pressure Air Temp Water Temp Dewpoint Dewpoint Depression Visibility Wind Speed Wind Dir Waves Ship Positions

Maersk Visby

Last reported at 2016-Jun-19 18:08 UTC. Time now 2016-Jun-29 12:52 UTC.
Position N 34°09' W 076°28'.
Warning: this ship's position is 9 days out of date.

Length 180 m; draft 8.1 m.

Type: Ship (hazmat cat A). MMSI: 564979000.

Date/timePositionNaut miles runAvg speedWind from/ knotsBaromVisibWave heightAir tempDewpointWater temp
2016-Jun-19 18:08N 34°09' W 076°28'914.9
2016-Jun-19 17:33N 34°15' W 076°20'11913.3
2016-Jun-19 08:33N 35°59' W 075°10'5814.6
2016-Jun-19 04:33N 36°49' W 075°48'1414.4
2016-Jun-19 03:33N 36°57' W 076°02'1414.2
2016-Jun-19 02:33N 36°58' W 076°20'5 5.4
2016-Jun-19 01:34N 36°53' W 076°21'0 0.0
2016-Jun-19 00:33N 36°53' W 076°21'0 0.0
2016-Jun-18 23:32N 36°53' W 076°21'0 0.0
2016-Jun-18 22:31N 36°53' W 076°21'0 0.0
2016-Jun-18 21:28N 36°53' W 076°21'0 0.0
2016-Jun-18 20:31N 36°53' W 076°21'0 0.0
2016-Jun-18 19:31N 36°53' W 076°21'0 0.0
2016-Jun-18 18:31N 36°53' W 076°21'0 0.0
2016-Jun-18 17:31N 36°53' W 076°21'0 0.0
2016-Jun-18 16:31N 36°53' W 076°21'0 0.0
2016-Jun-18 15:32N 36°53' W 076°21'5 5.3
2016-Jun-18 14:32N 36°58' W 076°20'1111.5
2016-Jun-18 13:33N 36°58' W 076°06'1111.2
2016-Jun-18 12:33N 36°54' W 075°53'9 9.2
2016-Jun-18 11:33N 36°51' W 075°43'1 0.6
2016-Jun-18 10:27N 36°50' W 075°42'0 0.0
2016-Jun-18 09:33N 36°51' W 075°42'0 0.0
2016-Jun-18 08:33N 36°51' W 075°42'0 0.0
2016-Jun-18 07:33N 36°51' W 075°42'0 0.0
2016-Jun-18 06:18N 36°50' W 075°42'4 1.3
2016-Jun-18 03:11N 36°49' W 075°46'915.0
2016-Jun-18 02:33N 36°54' W 075°56'1815.1
2016-Jun-18 01:22N 37°09' W 076°09'5116.4
2016-Jun-17 22:15N 37°60' W 076°12'4918.0
2016-Jun-17 19:33N 38°48' W 076°25'1615.9
2016-Jun-17 18:34N 39°03' W 076°23'1212.3
2016-Jun-17 17:33N 39°14' W 076°32'2 1.9
2016-Jun-17 16:33N 39°15' W 076°33'0 0.0
2016-Jun-17 15:33N 39°15' W 076°33'0 0.0
2016-Jun-17 14:33N 39°15' W 076°33'0 0.0
2016-Jun-17 13:33N 39°15' W 076°33'0 0.0
2016-Jun-17 12:33N 39°15' W 076°33'0 0.0
2016-Jun-17 11:24N 39°15' W 076°33'0 0.0
2016-Jun-17 10:33N 39°15' W 076°33'0 0.0
2016-Jun-17 09:33N 39°15' W 076°33'5 4.9
2016-Jun-17 08:33N 39°12' W 076°29'1111.0
2016-Jun-17 07:33N 39°02' W 076°23'1716.9
2016-Jun-17 06:34N 38°45' W 076°26'10918.1
2016-Jun-17 00:33N 36°58' W 075°60'1313.4
2016-Jun-16 23:33N 36°50' W 075°46'10610.6
2016-Jun-16 13:33N 38°10' W 074°18'2511.7
2016-Jun-16 11:27N 38°30' W 074°01'4811.7
2016-Jun-16 07:21N 39°18' W 073°55'911.8
2016-Jun-16 06:33N 39°28' W 073°54'1211.9
2016-Jun-16 05:33N 39°39' W 073°53'1212.0
2016-Jun-16 04:33N 39°51' W 073°51'1211.8
2016-Jun-16 03:33N 40°03' W 073°50'1211.8
2016-Jun-16 02:33N 40°15' W 073°49'1211.8
2016-Jun-16 01:33N 40°27' W 073°49'1312.8
2016-Jun-16 00:34N 40°35' W 074°02'7 6.7
2016-Jun-15 23:33N 40°39' W 074°09'2 2.0
2016-Jun-15 22:33N 40°41' W 074°09'0 0.0
2016-Jun-15 21:31N 40°41' W 074°09'0 0.0
2016-Jun-15 20:31N 40°41' W 074°09'0 0.0
2016-Jun-15 19:31N 40°41' W 074°09'0 0.0
2016-Jun-15 18:28N 40°41' W 074°09'0 0.0
2016-Jun-15 17:28N 40°41' W 074°09'0 0.0
2016-Jun-15 16:31N 40°41' W 074°09'0 0.0
2016-Jun-15 15:31N 40°41' W 074°09'0 0.0
2016-Jun-15 14:31N 40°41' W 074°09'0 0.0
2016-Jun-15 13:31N 40°41' W 074°09'0 0.0
2016-Jun-15 12:28N 40°41' W 074°09'0 0.0
2016-Jun-15 11:31N 40°41' W 074°09'0 0.0
2016-Jun-15 10:31N 40°41' W 074°09'1 1.4
2016-Jun-15 09:33N 40°40' W 074°08'5 4.7
2016-Jun-15 08:33N 40°38' W 074°03'1110.6
2016-Jun-15 07:33N 40°29' W 073°54'9212.4
2016-Jun-15 00:07N 39°28' W 072°24'712.9
2016-Jun-14 23:33N 39°23' W 072°17'1413.7
2016-Jun-14 22:33N 39°12' W 072°06'  

Dump ship's entire track history